Nearby METAR Reports

 

EGTE - Exeter Airport, United Kingdom
Distance from station: S 19km
Updated: 22/09/2019 19:50
Few Clouds
Few Clouds
 Wind from S
Wind: S 6 km/h
Temperature: 16°C
Dew Point: 15°C
Humidity: 94%
Barometer: 1004 hPa
Clouds: Few Clouds
Visibility: 10 km
Cloud details: Few Clouds 457 m
2019/09/22 18:50 EGTE 221850Z 17003KT 9999 FEW015 16/15 Q1004
EGDY - Yeovilton (navy), United Kingdom
Distance from station: ENE 55km
Updated: 22/09/2019 18:50
Partly cloudy
Partly cloudy
 Wind from S
Wind: S 13 km/h
Temperature: 16°C
Dew Point: 13°C
Humidity: 83%
Barometer: 1003 hPa
Clouds: Partly cloudy
Visibility: 10 km
Cloud details: Partly cloudy 488 m
2019/09/22 17:50 EGDY 221750Z AUTO 19007KT 9999 SCT016/// 16/13 Q1003
 
EGFF - Cardiff-Wales Ar, United Kingdom
Distance from station: N 56km
Updated: 22/09/2019 19:50
Partly cloudy
Partly cloudy
 Wind from WSW
Wind: WSW 13 km/h
Temperature: 16°C
Dew Point: 13°C
Humidity: 83%
Barometer: 1003 hPa
Clouds: Partly cloudy
Visibility: 10 km
Cloud details: Few Clouds 914 m
Partly cloudy 1128 m
2019/09/22 18:50 EGFF 221850Z 24007KT 9999 FEW030CB SCT037 16/13 Q1003
EGDX - St Athan Raf, United Kingdom
Distance from station: N 58km
Updated: 01/04/2019 13:50
NOT Current
Clear
Clear
 Wind from E
Wind: E 15 km/h
Temperature: 11°C
Dew Point: 5°C
Humidity: 67%
Barometer: 1019 hPa
Clouds: Clear
Visibility: 10 km
2019/04/01 12:50 EGDX 011250Z AUTO 10008KT 9999 NCD 11/05 Q1019
 
EGGD - Bristol/Lulsgate, United Kingdom
Distance from station: NE 71km
Updated: 22/09/2019 19:50
Partly cloudy
Partly cloudy
 Wind from S
Wind: S 9 km/h
Temperature: 14°C
Dew Point: 12°C
Humidity: 88%
Barometer: 1004 hPa
Clouds: Partly cloudy
Visibility: 10 km
Cloud details: Partly cloudy 792 m
2019/09/22 18:50 EGGD 221850Z AUTO 19005KT 160V230 9999 SCT026 14/12 Q1004